createdAt,value
2022-09-06T00:01:17.395Z,100106.20
2022-09-06T00:03:46.411Z,100112.89
2022-09-06T00:06:18.423Z,100108.53
2022-09-06T00:08:48.243Z,100106.78
2022-09-06T00:11:17.946Z,100104.84
2022-09-06T00:13:47.349Z,100103.61
2022-09-06T00:16:18.826Z,100102.20
2022-09-06T00:18:47.530Z,100102.55
2022-09-06T00:21:28.772Z,100100.08
2022-09-06T00:23:57.002Z,100101.34
2022-09-06T00:26:25.556Z,100098.74
2022-09-06T00:28:53.704Z,100101.77
2022-09-06T00:31:24.908Z,100104.77
2022-09-06T00:33:54.250Z,100105.48
2022-09-06T00:36:23.134Z,100102.65
2022-09-06T00:38:51.412Z,100096.49
2022-09-06T00:41:19.691Z,100101.02
2022-09-06T00:43:47.920Z,100100.86
2022-09-06T00:46:21.178Z,100099.13
2022-09-06T00:48:54.960Z,100094.06
2022-09-06T00:51:27.641Z,100092.66
2022-09-06T00:53:56.143Z,100092.35
2022-09-06T00:56:25.523Z,100093.77
2022-09-06T00:58:54.823Z,100093.80
2022-09-06T01:01:23.335Z,100091.20
2022-09-06T01:03:51.991Z,100092.45
2022-09-06T01:06:20.474Z,100092.96
2022-09-06T01:09:20.696Z,100090.35
2022-09-06T01:12:04.028Z,100088.61
2022-09-06T01:14:50.940Z,100088.58
2022-09-06T01:17:30.992Z,100090.46
2022-09-06T01:20:01.815Z,100092.05
2022-09-06T01:23:12.170Z,100093.79
2022-09-06T01:25:52.012Z,100090.27
2022-09-06T01:28:30.608Z,100090.13
2022-09-06T01:31:20.800Z,100095.03
2022-09-06T01:34:00.593Z,100097.52
2022-09-06T01:36:45.766Z,100095.79
2022-09-06T01:39:33.799Z,100097.59
2022-09-06T01:42:08.435Z,100095.55
2022-09-06T01:44:38.753Z,100096.13
2022-09-06T01:47:35.702Z,100096.35
2022-09-06T01:50:28.451Z,100097.98
2022-09-06T01:53:09.630Z,100095.74
2022-09-06T01:56:04.940Z,100094.04
2022-09-06T01:59:17.454Z,100091.96
2022-09-06T02:01:52.876Z,100091.81
2022-09-06T02:04:33.055Z,100089.35
2022-09-06T02:07:09.214Z,100087.80
2022-09-06T02:09:43.840Z,100086.94
2022-09-06T02:12:16.927Z,100091.52
2022-09-06T02:14:51.247Z,100092.75
2022-09-06T02:17:25.156Z,100086.98
2022-09-06T02:19:59.881Z,100081.22
2022-09-06T02:22:33.277Z,100083.70
2022-09-06T02:25:04.320Z,100084.40
2022-09-06T02:27:33.103Z,100081.42
2022-09-06T02:30:03.263Z,100083.91
2022-09-06T02:32:35.908Z,100086.02
2022-09-06T02:35:09.095Z,100082.01
2022-09-06T02:37:37.147Z,100080.45
2022-09-06T02:40:06.164Z,100078.00
2022-09-06T02:42:34.540Z,100080.29
2022-09-06T02:45:02.922Z,100079.77
2022-09-06T02:47:31.501Z,100075.05
2022-09-06T02:49:59.676Z,100072.09
2022-09-06T02:52:27.850Z,100074.01
2022-09-06T02:54:56.024Z,100067.35
2022-09-06T02:57:24.198Z,100066.15
2022-09-06T02:59:52.371Z,100070.00
2022-09-06T03:02:20.553Z,100066.35
2022-09-06T03:04:49.026Z,100063.56
2022-09-06T03:07:17.209Z,100064.78
2022-09-06T03:09:45.476Z,100065.48
2022-09-06T03:12:13.649Z,100065.48
2022-09-06T03:14:41.824Z,100065.13
2022-09-06T03:17:09.999Z,100068.11
2022-09-06T03:19:38.171Z,100067.77
2022-09-06T03:22:06.345Z,100067.77
2022-09-06T03:24:34.417Z,100069.52
2022-09-06T03:27:02.591Z,100068.83
2022-09-06T03:29:30.764Z,100068.66
2022-09-06T03:31:58.939Z,100072.34
2022-09-06T03:34:27.215Z,100067.95
2022-09-06T03:36:55.388Z,100069.20
2022-09-06T03:39:23.786Z,100068.66
2022-09-06T03:41:52.155Z,100065.52
2022-09-06T03:44:20.171Z,100064.65
2022-09-06T03:46:48.270Z,100066.57
2022-09-06T03:49:16.287Z,100071.64
2022-09-06T03:51:44.358Z,100073.91
2022-09-06T03:54:12.551Z,100072.67
2022-09-06T03:56:40.554Z,100070.05
2022-09-06T03:59:08.616Z,100066.73
2022-09-06T04:01:36.730Z,100063.25
2022-09-06T04:04:04.891Z,100068.66
2022-09-06T04:06:33.065Z,100068.30
2022-09-06T04:09:01.238Z,100066.02
2022-09-06T04:11:29.413Z,100070.56
2022-09-06T04:13:57.586Z,100070.73
2022-09-06T04:16:25.789Z,100060.96
2022-09-06T04:18:54.855Z,100065.16
2022-09-06T04:21:23.340Z,100061.84
2022-09-06T04:23:51.514Z,100063.04
2022-09-06T04:26:19.992Z,100062.17
2022-09-06T04:28:48.172Z,100068.64
2022-09-06T04:31:16.282Z,100065.50
2022-09-06T04:33:44.617Z,100070.91
2022-09-06T04:36:13.711Z,100070.21
2022-09-06T04:38:43.935Z,100071.26
2022-09-06T04:41:15.997Z,100071.77
2022-09-06T04:43:44.171Z,100072.83
2022-09-06T04:46:25.362Z,100073.89
2022-09-06T04:48:55.061Z,100074.05
2022-09-06T04:51:24.438Z,100079.13
2022-09-06T04:53:53.046Z,100080.17
2022-09-06T04:56:24.395Z,100073.71
2022-09-06T04:58:54.621Z,100069.86
2022-09-06T05:01:23.452Z,100068.13
2022-09-06T05:03:56.175Z,100064.98
2022-09-06T05:06:25.903Z,100066.74
2022-09-06T05:08:54.173Z,100070.41
2022-09-06T05:11:22.289Z,100072.69
2022-09-06T05:13:50.647Z,100073.73
2022-09-06T05:16:18.994Z,100071.98
2022-09-06T05:18:47.294Z,100071.98
2022-09-06T05:21:16.323Z,100073.91
2022-09-06T05:23:44.752Z,100073.91
2022-09-06T05:26:12.927Z,100067.45
2022-09-06T05:28:41.098Z,100070.23
2022-09-06T05:31:27.969Z,100075.66
2022-09-06T05:33:57.825Z,100077.22
2022-09-06T05:36:27.535Z,100080.20
2022-09-06T05:38:56.937Z,100082.98
2022-09-06T05:41:26.032Z,100083.00
2022-09-06T05:43:54.515Z,100079.68
2022-09-06T05:46:22.789Z,100075.99
2022-09-06T05:48:55.980Z,100078.60
2022-09-06T05:51:24.565Z,100083.33
2022-09-06T05:53:53.148Z,100086.30
2022-09-06T05:56:22.553Z,100084.90
2022-09-06T05:58:51.062Z,100084.20
2022-09-06T06:01:20.855Z,100086.80
2022-09-06T06:03:57.547Z,100082.95
2022-09-06T06:06:27.642Z,100080.48
2022-09-06T06:08:56.581Z,100083.80
2022-09-06T06:11:26.175Z,100084.31
2022-09-06T06:13:55.129Z,100083.08
2022-09-06T06:16:23.968Z,100089.36
2022-09-06T06:18:52.938Z,100089.70
2022-09-06T06:21:22.311Z,100087.42
2022-09-06T06:23:53.865Z,100090.21
2022-09-06T06:26:23.219Z,100095.09
2022-09-06T06:28:52.153Z,100091.05
2022-09-06T06:31:22.693Z,100094.58
2022-09-06T06:33:51.371Z,100099.28
2022-09-06T06:36:25.093Z,100094.35
2022-09-06T06:38:55.533Z,100090.83
2022-09-06T06:41:26.340Z,100093.07
2022-09-06T06:43:59.632Z,100090.59
2022-09-06T06:46:31.492Z,100090.21
2022-09-06T06:49:00.220Z,100093.15
2022-09-06T06:51:30.925Z,100094.88
2022-09-06T06:53:59.423Z,100091.88
2022-09-06T06:56:30.536Z,100091.48
2022-09-06T06:59:01.578Z,100089.31
2022-09-06T07:01:32.044Z,100085.08
2022-09-06T07:04:00.432Z,100086.80
2022-09-06T07:09:18.961Z,100090.90
2022-09-06T07:11:49.088Z,100087.00
2022-09-06T07:14:18.271Z,100093.26
2022-09-06T07:16:46.813Z,100093.23
2022-09-06T07:22:05.717Z,100093.63
2022-09-06T07:24:34.109Z,100093.93
2022-09-06T07:29:50.422Z,100099.10
2022-09-06T07:32:18.801Z,100097.99
2022-09-06T07:34:47.148Z,100100.02
2022-09-06T07:37:15.557Z,100107.52
2022-09-06T07:39:43.919Z,100113.05
2022-09-06T07:42:12.110Z,100117.73
2022-09-06T07:44:40.592Z,100116.98
2022-09-06T07:55:34.113Z,100103.19
2022-09-06T07:58:02.185Z,100108.34
2022-09-06T08:00:30.361Z,100106.12
2022-09-06T08:02:58.485Z,100106.91
2022-09-06T08:11:03.912Z,100104.25
2022-09-06T08:13:32.052Z,100103.23
2022-09-06T08:16:03.546Z,100103.24
2022-09-06T08:18:32.198Z,100105.73
2022-09-06T08:21:14.632Z,100099.27
2022-09-06T08:23:48.586Z,100096.81
2022-09-06T08:26:18.658Z,100092.80
2022-09-06T08:28:47.568Z,100092.13
2022-09-06T08:31:17.839Z,100087.38
2022-09-06T08:33:47.988Z,100085.11
2022-09-06T08:36:16.385Z,100082.81
2022-09-06T08:38:45.907Z,100079.10
2022-09-06T08:41:14.126Z,100071.70
2022-09-06T08:47:13.476Z,100075.74
2022-09-06T08:49:55.579Z,100072.27
2022-09-06T08:52:35.775Z,100068.01
2022-09-06T08:55:30.471Z,100065.66
2022-09-06T08:58:20.460Z,100059.10
2022-09-06T09:00:53.270Z,100055.73
2022-09-06T09:03:25.464Z,100059.27
2022-09-06T09:05:54.587Z,100054.33
2022-09-06T09:08:32.937Z,100052.52
2022-09-06T09:11:10.478Z,100052.30
2022-09-06T09:14:23.592Z,100052.80
2022-09-06T09:16:53.252Z,100050.94
2022-09-06T09:19:21.438Z,100044.71
2022-09-06T09:21:49.650Z,100042.52
2022-09-06T09:24:17.828Z,100046.83
2022-09-06T09:26:51.735Z,100042.47
2022-09-06T09:29:25.382Z,100042.11
2022-09-06T09:31:56.566Z,100041.21
2022-09-06T09:34:36.731Z,100036.95
2022-09-06T09:40:03.706Z,100029.88
2022-09-06T09:42:36.286Z,100023.22
2022-09-06T09:45:22.812Z,100025.72
2022-09-06T09:47:51.269Z,100028.50
2022-09-06T09:50:26.211Z,100023.47
2022-09-06T09:52:55.112Z,100022.42
2022-09-06T09:55:28.527Z,100019.45
2022-09-06T09:57:57.083Z,100013.11
2022-09-06T10:00:43.272Z,100007.83
2022-09-06T10:03:16.808Z,99999.89
2022-09-06T10:06:02.162Z,99998.83
2022-09-06T10:08:33.649Z,99994.99
2022-09-06T10:11:01.963Z,99993.10
2022-09-06T10:13:31.696Z,99992.20
2022-09-06T10:16:00.935Z,99987.58
2022-09-06T10:18:34.984Z,99986.15
2022-09-06T10:21:11.043Z,99981.84
2022-09-06T10:26:39.237Z,99982.42
2022-09-06T10:29:11.306Z,99975.76
2022-09-06T10:32:09.788Z,99969.50
2022-09-06T10:34:43.899Z,99961.77
2022-09-06T10:37:38.902Z,99961.19
2022-09-06T10:40:10.545Z,99954.42
2022-09-06T10:42:47.335Z,99950.45
2022-09-06T10:45:27.921Z,99949.86
2022-09-06T10:47:56.171Z,99952.27
2022-09-06T10:50:52.096Z,99947.67
2022-09-06T10:53:51.716Z,99946.30
2022-09-06T10:56:25.515Z,99942.58
2022-09-06T11:02:06.107Z,99939.11
2022-09-06T11:07:31.534Z,99936.23
2022-09-06T11:10:08.814Z,99932.19
2022-09-06T11:13:05.462Z,99929.88
2022-09-06T11:15:44.048Z,99923.33
2022-09-06T11:18:16.600Z,99921.27
2022-09-06T11:20:48.001Z,99920.04
2022-09-06T11:23:33.074Z,99918.33
2022-09-06T11:26:16.200Z,99920.52
2022-09-06T11:28:53.076Z,99917.45
2022-09-06T11:34:25.262Z,99916.89
2022-09-06T11:37:04.390Z,99912.44
2022-09-06T11:42:43.648Z,99909.02
2022-09-06T11:45:11.717Z,99907.23
2022-09-06T11:47:41.324Z,99907.29
2022-09-06T11:50:54.280Z,99901.53
2022-09-06T11:53:26.043Z,99900.06
2022-09-06T11:56:00.138Z,99898.98
2022-09-06T11:58:45.190Z,99890.51
2022-09-06T12:01:13.471Z,99885.72
2022-09-06T12:06:36.232Z,99885.02
2022-09-06T12:09:28.777Z,99882.91
2022-09-06T12:11:58.096Z,99883.25
2022-09-06T12:14:36.186Z,99882.61
2022-09-06T12:17:18.898Z,99875.86
2022-09-06T12:19:52.192Z,99874.29
2022-09-06T12:22:40.538Z,99875.95
2022-09-06T12:25:43.427Z,99867.57
2022-09-06T12:28:25.857Z,99873.49
2022-09-06T12:30:54.390Z,99872.59
2022-09-06T12:33:39.122Z,99867.73
2022-09-06T12:36:33.639Z,99859.13
2022-09-06T12:39:14.633Z,99855.55
2022-09-06T12:41:49.543Z,99847.18
2022-09-06T12:44:22.022Z,99850.21
2022-09-06T12:46:51.948Z,99850.88
2022-09-06T12:49:23.604Z,99849.09
2022-09-06T12:51:51.530Z,99845.70
2022-09-06T12:54:24.084Z,99836.27
2022-09-06T12:56:52.923Z,99839.79
2022-09-06T12:59:24.748Z,99844.93
2022-09-06T13:02:00.860Z,99841.43
2022-09-06T13:04:46.119Z,99845.80
2022-09-06T13:07:17.725Z,99848.09
2022-09-06T13:09:47.641Z,99844.70
2022-09-06T13:12:27.773Z,99840.66
2022-09-06T13:14:58.608Z,99837.98
2022-09-06T13:17:29.444Z,99834.96
2022-09-06T13:19:58.640Z,99836.09
2022-09-06T13:22:51.006Z,99835.33
2022-09-06T13:25:22.127Z,99831.02
2022-09-06T13:27:54.499Z,99835.39
2022-09-06T13:30:44.263Z,99837.22
2022-09-06T13:33:25.817Z,99833.42
2022-09-06T13:36:14.221Z,99837.59
2022-09-06T13:38:43.617Z,99843.83
2022-09-06T13:41:26.694Z,99842.10
2022-09-06T13:44:07.203Z,99838.41
2022-09-06T13:46:39.025Z,99834.36
2022-09-06T13:49:07.728Z,99835.67
2022-09-06T13:51:37.972Z,99830.67
2022-09-06T13:54:16.077Z,99831.71
2022-09-06T13:56:45.075Z,99827.38
2022-09-06T13:59:13.244Z,99821.13
2022-09-06T14:01:44.481Z,99813.45
2022-09-06T14:04:15.839Z,99807.90
2022-09-06T14:06:44.011Z,99807.55
2022-09-06T14:09:12.467Z,99795.89
2022-09-06T14:11:42.883Z,99797.61
2022-09-06T14:14:14.373Z,99794.35
2022-09-06T14:16:42.544Z,99795.10
2022-09-06T14:19:10.923Z,99795.71
2022-09-06T14:21:39.510Z,99797.81
2022-09-06T14:24:08.127Z,99796.20
2022-09-06T14:26:37.597Z,99795.86
2022-09-06T14:29:06.487Z,99795.63
2022-09-06T14:31:34.941Z,99795.22
2022-09-06T14:34:06.212Z,99794.96
2022-09-06T14:36:34.747Z,99794.11
2022-09-06T14:39:04.311Z,99783.88
2022-09-06T14:41:32.680Z,99780.00
2022-09-06T14:44:01.058Z,99775.26
2022-09-06T14:46:30.152Z,99765.99
2022-09-06T14:49:01.299Z,99766.13
2022-09-06T14:51:30.998Z,99763.89
2022-09-06T14:54:05.714Z,99763.93
2022-09-06T14:56:34.556Z,99759.77
2022-09-06T14:59:02.697Z,99762.11
2022-09-06T15:01:37.742Z,99768.23
2022-09-06T15:04:09.467Z,99764.38
2022-09-06T15:06:41.374Z,99766.66
2022-09-06T15:09:11.635Z,99762.70
2022-09-06T15:11:46.427Z,99764.36
2022-09-06T15:14:18.159Z,99766.61
2022-09-06T15:16:52.016Z,99765.94
2022-09-06T15:19:25.006Z,99766.55
2022-09-06T15:21:54.061Z,99761.03
2022-09-06T15:24:22.362Z,99760.48
2022-09-06T15:26:50.589Z,99762.05
2022-09-06T15:29:19.431Z,99759.41
2022-09-06T15:31:50.647Z,99761.73
2022-09-06T15:34:21.231Z,99759.52
2022-09-06T15:36:50.942Z,99761.35
2022-09-06T15:39:19.485Z,99757.39
2022-09-06T15:41:50.579Z,99758.03
2022-09-06T15:44:20.967Z,99758.39
2022-09-06T15:46:54.935Z,99754.14
2022-09-06T15:49:32.111Z,99755.13
2022-09-06T15:52:02.363Z,99755.47
2022-09-06T15:54:49.299Z,99752.71
2022-09-06T15:57:17.796Z,99748.65
2022-09-06T15:59:46.333Z,99752.04
2022-09-06T16:02:20.110Z,99752.17
2022-09-06T16:04:54.980Z,99751.04
2022-09-06T16:07:23.771Z,99751.29
2022-09-06T16:09:51.913Z,99748.20
2022-09-06T16:12:19.945Z,99751.30
2022-09-06T16:14:48.020Z,99746.96
2022-09-06T16:17:16.081Z,99754.21
2022-09-06T16:19:45.763Z,99753.52
2022-09-06T16:22:14.225Z,99753.28
2022-09-06T16:24:43.148Z,99745.10
2022-09-06T16:27:11.734Z,99752.48
2022-09-06T16:29:39.971Z,99747.89
2022-09-06T16:32:08.349Z,99749.15
2022-09-06T16:34:38.160Z,99753.91
2022-09-06T16:37:09.508Z,99757.35
2022-09-06T16:39:37.872Z,99754.04
2022-09-06T16:42:06.781Z,99753.80
2022-09-06T16:44:35.055Z,99751.19
2022-09-06T16:47:04.367Z,99751.54
2022-09-06T16:49:32.635Z,99751.90
2022-09-06T16:52:01.013Z,99747.61
2022-09-06T16:54:29.285Z,99739.13
2022-09-06T16:56:57.461Z,99738.96
2022-09-06T16:59:25.634Z,99736.29
2022-09-06T17:01:56.292Z,99741.45
2022-09-06T17:04:24.542Z,99740.95
2022-09-06T17:06:53.330Z,99742.44
2022-09-06T17:09:21.405Z,99737.67
2022-09-06T17:11:52.366Z,99740.12
2022-09-06T17:14:20.473Z,99738.13
2022-09-06T17:17:07.585Z,99741.64
2022-09-06T17:19:43.996Z,99744.04
2022-09-06T17:22:13.048Z,99749.48
2022-09-06T17:24:41.881Z,99755.31
2022-09-06T17:27:10.405Z,99754.04
2022-09-06T17:29:40.384Z,99752.10
2022-09-06T17:32:12.137Z,99752.11
2022-09-06T17:34:41.233Z,99749.97
2022-09-06T17:37:09.745Z,99752.08
2022-09-06T17:39:39.058Z,99753.66
2022-09-06T17:42:07.497Z,99754.69
2022-09-06T17:44:36.283Z,99755.16
2022-09-06T17:47:13.488Z,99758.46
2022-09-06T17:49:43.489Z,99760.20
2022-09-06T17:52:12.721Z,99760.70
2022-09-06T17:54:40.905Z,99765.53
2022-09-06T17:57:10.362Z,99764.20
2022-09-06T17:59:39.866Z,99765.70
2022-09-06T18:02:08.655Z,99766.83
2022-09-06T18:04:36.945Z,99764.78
2022-09-06T18:07:05.412Z,99764.49
2022-09-06T18:09:33.793Z,99767.60
2022-09-06T18:12:02.271Z,99764.88
2022-09-06T18:14:30.449Z,99766.55
2022-09-06T18:16:58.793Z,99768.91
2022-09-06T18:19:28.055Z,99772.12
2022-09-06T18:21:57.567Z,99770.75
2022-09-06T18:24:25.905Z,99769.77
2022-09-06T18:26:54.099Z,99775.79
2022-09-06T18:29:22.726Z,99778.52
2022-09-06T18:31:54.529Z,99783.50
2022-09-06T18:34:23.119Z,99780.96
2022-09-06T18:36:51.590Z,99779.63
2022-09-06T18:39:20.646Z,99781.26
2022-09-06T18:42:01.109Z,99783.80
2022-09-06T18:44:35.089Z,99786.88
2022-09-06T18:47:06.505Z,99787.13
2022-09-06T18:49:35.588Z,99786.20
2022-09-06T18:52:05.822Z,99788.05
2022-09-06T18:54:35.227Z,99790.75
2022-09-06T18:57:04.593Z,99794.20
2022-09-06T18:59:32.800Z,99792.67
2022-09-06T19:02:01.471Z,99793.30
2022-09-06T19:04:29.864Z,99795.32
2022-09-06T19:07:02.242Z,99792.27
2022-09-06T19:09:30.720Z,99797.86
2022-09-06T19:11:58.943Z,99794.80
2022-09-06T19:14:27.169Z,99788.94
2022-09-06T19:16:55.444Z,99788.20
2022-09-06T19:19:23.926Z,99784.10
2022-09-06T19:21:52.099Z,99782.86
2022-09-06T19:24:22.918Z,99774.41
2022-09-06T19:26:53.263Z,99777.77
2022-09-06T19:29:21.849Z,99775.97
2022-09-06T19:31:50.087Z,99777.34
2022-09-06T19:34:18.703Z,99782.71
2022-09-06T19:36:50.829Z,99779.29
2022-09-06T19:39:21.739Z,99778.92
2022-09-06T19:41:49.986Z,99777.33
2022-09-06T19:44:18.771Z,99777.92
2022-09-06T19:46:47.604Z,99781.80
2022-09-06T19:49:19.465Z,99776.19
2022-09-06T19:51:49.263Z,99772.02
2022-09-06T19:54:18.301Z,99773.80
2022-09-06T19:56:47.452Z,99777.38
2022-09-06T19:59:16.588Z,99782.56
2022-09-06T20:01:46.566Z,99787.55
2022-09-06T20:04:15.323Z,99786.06
2022-09-06T20:06:43.804Z,99786.15
2022-09-06T20:09:13.232Z,99785.86
2022-09-06T20:11:42.409Z,99782.63
2022-09-06T20:14:12.524Z,99777.21
2022-09-06T20:16:42.475Z,99774.45
2022-09-06T20:19:12.767Z,99772.21
2022-09-06T20:21:41.448Z,99777.35
2022-09-06T20:24:09.939Z,99780.45
2022-09-06T20:26:38.514Z,99779.45
2022-09-06T20:29:08.141Z,99775.16
2022-09-06T20:31:37.876Z,99777.67
2022-09-06T20:34:07.288Z,99774.01
2022-09-06T20:36:36.081Z,99772.80
2022-09-06T20:39:04.811Z,99766.35
2022-09-06T20:41:34.214Z,99767.44
2022-09-06T20:44:03.912Z,99766.84
2022-09-06T20:46:35.515Z,99758.52
2022-09-06T20:49:05.238Z,99757.04
2022-09-06T20:51:36.334Z,99759.74
2022-09-06T20:54:05.665Z,99763.51
2022-09-06T20:56:37.796Z,99760.45
2022-09-06T20:59:09.195Z,99756.13
2022-09-06T21:01:41.248Z,99759.95
2022-09-06T21:04:11.535Z,99761.82
2022-09-06T21:06:40.853Z,99758.36
2022-09-06T21:09:11.894Z,99759.52
2022-09-06T21:11:40.779Z,99757.13
2022-09-06T21:14:09.912Z,99754.67
2022-09-06T21:16:39.213Z,99753.02
2022-09-06T21:19:09.486Z,99755.76
2022-09-06T21:21:38.372Z,99757.02
2022-09-06T21:24:07.950Z,99754.63
2022-09-06T21:26:36.159Z,99753.66
2022-09-06T21:29:04.639Z,99756.02
2022-09-06T21:31:36.402Z,99754.16
2022-09-06T21:34:09.048Z,99753.99
2022-09-06T21:36:39.588Z,99756.31
2022-09-06T21:39:10.239Z,99757.73
2022-09-06T21:41:40.254Z,99757.91
2022-09-06T21:44:09.760Z,99753.00
2022-09-06T21:46:39.738Z,99752.02
2022-09-06T21:49:10.820Z,99750.80
2022-09-06T21:51:39.712Z,99749.61
2022-09-06T21:54:07.886Z,99749.64
2022-09-06T21:56:38.126Z,99743.57
2022-09-06T21:59:06.696Z,99748.97
2022-09-06T22:01:36.508Z,99745.52
2022-09-06T22:04:06.265Z,99744.64
2022-09-06T22:06:35.935Z,99743.25
2022-09-06T22:09:08.908Z,99742.42
2022-09-06T22:11:39.845Z,99737.76
2022-09-06T22:14:10.373Z,99734.17
2022-09-06T22:16:40.083Z,99735.33
2022-09-06T22:19:09.798Z,99734.50
2022-09-06T22:21:38.914Z,99732.38
2022-09-06T22:24:10.241Z,99735.20
2022-09-06T22:26:40.568Z,99738.23
2022-09-06T22:29:11.297Z,99738.55
2022-09-06T22:31:40.468Z,99739.95
2022-09-06T22:34:09.203Z,99740.84
2022-09-06T22:36:37.560Z,99742.60
2022-09-06T22:39:06.550Z,99741.08
2022-09-06T22:41:34.733Z,99739.36
2022-09-06T22:44:04.005Z,99744.81
2022-09-06T22:46:33.097Z,99744.45
2022-09-06T22:49:02.523Z,99743.41
2022-09-06T22:51:30.901Z,99740.23
2022-09-06T22:53:59.075Z,99731.82
2022-09-06T22:56:27.251Z,99727.96
2022-09-06T22:58:55.525Z,99724.48
2022-09-06T23:01:23.773Z,99721.55
2022-09-06T23:03:51.977Z,99715.83
2022-09-06T23:06:20.156Z,99715.60
2022-09-06T23:08:48.630Z,99712.84
2022-09-06T23:11:19.102Z,99707.42
2022-09-06T23:13:47.354Z,99703.09
2022-09-06T23:16:18.788Z,99698.84
2022-09-06T23:18:47.958Z,99698.95
2022-09-06T23:21:18.818Z,99693.79
2022-09-06T23:23:48.757Z,99692.27
2022-09-06T23:26:22.966Z,99690.05
2022-09-06T23:28:52.111Z,99690.64
2022-09-06T23:31:20.351Z,99688.94
2022-09-06T23:33:52.283Z,99690.58
2022-09-06T23:36:20.660Z,99689.83
2022-09-06T23:38:49.039Z,99685.50
2022-09-06T23:41:18.135Z,99683.40
2022-09-06T23:43:46.410Z,99687.63
2022-09-06T23:46:17.271Z,99693.08
2022-09-06T23:48:45.831Z,99690.65
2022-09-06T23:51:14.311Z,99699.95
2022-09-06T23:53:42.690Z,99694.21
2022-09-06T23:56:11.989Z,99692.81
2022-09-06T23:58:40.381Z,99687.92
